sensor_id;sensor_type;location;lat;lon;timestamp;P1;durP1;ratioP1;P2;durP2;ratioP2
79178;SDS011;68608;49.904;16.436;2023-11-22T00:01:58;8.80;;;7.77;;
79178;SDS011;68608;49.904;16.436;2023-11-22T00:04:24;8.57;;;7.63;;
79178;SDS011;68608;49.904;16.436;2023-11-22T00:06:50;8.20;;;7.20;;
79178;SDS011;68608;49.904;16.436;2023-11-22T00:09:16;8.67;;;7.50;;
79178;SDS011;68608;49.904;16.436;2023-11-22T00:11:47;7.43;;;6.63;;
79178;SDS011;68608;49.904;16.436;2023-11-22T00:14:13;6.90;;;6.30;;
79178;SDS011;68608;49.904;16.436;2023-11-22T00:16:39;7.83;;;7.00;;
79178;SDS011;68608;49.904;16.436;2023-11-22T00:19:05;7.50;;;6.80;;
79178;SDS011;68608;49.904;16.436;2023-11-22T00:21:32;7.23;;;6.53;;
79178;SDS011;68608;49.904;16.436;2023-11-22T00:23:58;7.97;;;7.23;;
79178;SDS011;68608;49.904;16.436;2023-11-22T00:26:24;7.63;;;6.93;;
79178;SDS011;68608;49.904;16.436;2023-11-22T00:28:50;7.67;;;6.87;;
79178;SDS011;68608;49.904;16.436;2023-11-22T00:31:18;8.70;;;6.90;;
79178;SDS011;68608;49.904;16.436;2023-11-22T00:33:45;7.03;;;6.43;;
79178;SDS011;68608;49.904;16.436;2023-11-22T00:36:11;7.27;;;6.60;;
79178;SDS011;68608;49.904;16.436;2023-11-22T00:38:40;7.33;;;6.63;;
79178;SDS011;68608;49.904;16.436;2023-11-22T00:41:06;8.67;;;7.77;;
79178;SDS011;68608;49.904;16.436;2023-11-22T00:43:33;7.57;;;6.87;;
79178;SDS011;68608;49.904;16.436;2023-11-22T00:45:59;8.60;;;7.70;;
79178;SDS011;68608;49.904;16.436;2023-11-22T00:48:26;7.57;;;6.87;;
79178;SDS011;68608;49.904;16.436;2023-11-22T00:50:52;8.00;;;7.23;;
79178;SDS011;68608;49.904;16.436;2023-11-22T00:53:18;8.53;;;7.60;;
79178;SDS011;68608;49.904;16.436;2023-11-22T00:55:44;8.60;;;7.70;;
79178;SDS011;68608;49.904;16.436;2023-11-22T00:58:10;9.57;;;8.60;;
79178;SDS011;68608;49.904;16.436;2023-11-22T01:00:36;9.30;;;8.40;;
79178;SDS011;68608;49.904;16.436;2023-11-22T01:03:03;9.33;;;8.43;;
79178;SDS011;68608;49.904;16.436;2023-11-22T01:05:30;9.23;;;8.03;;
79178;SDS011;68608;49.904;16.436;2023-11-22T01:07:56;9.73;;;8.73;;
79178;SDS011;68608;49.904;16.436;2023-11-22T01:10:22;9.40;;;8.50;;
79178;SDS011;68608;49.904;16.436;2023-11-22T01:12:48;9.80;;;8.57;;
79178;SDS011;68608;49.904;16.436;2023-11-22T01:15:14;10.63;;;9.53;;
79178;SDS011;68608;49.904;16.436;2023-11-22T01:17:40;9.50;;;8.60;;
79178;SDS011;68608;49.904;16.436;2023-11-22T01:20:06;10.97;;;9.87;;
79178;SDS011;68608;49.904;16.436;2023-11-22T01:22:36;10.10;;;9.10;;
79178;SDS011;68608;49.904;16.436;2023-11-22T01:25:03;11.50;;;10.30;;
79178;SDS011;68608;49.904;16.436;2023-11-22T01:27:29;11.83;;;9.43;;
79178;SDS011;68608;49.904;16.436;2023-11-22T01:29:55;11.30;;;10.20;;
79178;SDS011;68608;49.904;16.436;2023-11-22T01:32:22;13.27;;;10.93;;
79178;SDS011;68608;49.904;16.436;2023-11-22T01:34:49;12.07;;;10.07;;
79178;SDS011;68608;49.904;16.436;2023-11-22T01:37:15;12.37;;;11.03;;
79178;SDS011;68608;49.904;16.436;2023-11-22T01:39:41;12.43;;;11.13;;
79178;SDS011;68608;49.904;16.436;2023-11-22T01:42:07;12.80;;;11.53;;
79178;SDS011;68608;49.904;16.436;2023-11-22T01:44:34;15.87;;;12.27;;
79178;SDS011;68608;49.904;16.436;2023-11-22T01:47:01;13.13;;;11.83;;
79178;SDS011;68608;49.904;16.436;2023-11-22T01:49:28;13.33;;;11.83;;
79178;SDS011;68608;49.904;16.436;2023-11-22T01:51:54;13.80;;;12.27;;
79178;SDS011;68608;49.904;16.436;2023-11-22T01:54:21;13.73;;;12.33;;
79178;SDS011;68608;49.904;16.436;2023-11-22T01:56:48;14.17;;;12.70;;
79178;SDS011;68608;49.904;16.436;2023-11-22T01:59:15;12.83;;;11.53;;
79178;SDS011;68608;49.904;16.436;2023-11-22T02:01:42;13.77;;;11.80;;
79178;SDS011;68608;49.904;16.436;2023-11-22T02:04:08;14.80;;;13.17;;
79178;SDS011;68608;49.904;16.436;2023-11-22T02:06:34;13.03;;;11.83;;
79178;SDS011;68608;49.904;16.436;2023-11-22T02:09:02;12.30;;;11.07;;
79178;SDS011;68608;49.904;16.436;2023-11-22T02:11:28;13.40;;;10.80;;
79178;SDS011;68608;49.904;16.436;2023-11-22T02:13:54;12.27;;;11.00;;
79178;SDS011;68608;49.904;16.436;2023-11-22T02:16:20;12.90;;;11.70;;
79178;SDS011;68608;49.904;16.436;2023-11-22T02:18:47;13.47;;;12.17;;
79178;SDS011;68608;49.904;16.436;2023-11-22T02:21:13;12.97;;;11.57;;
79178;SDS011;68608;49.904;16.436;2023-11-22T02:23:41;13.50;;;10.87;;
79178;SDS011;68608;49.904;16.436;2023-11-22T02:26:08;12.47;;;11.17;;
79178;SDS011;68608;49.904;16.436;2023-11-22T02:28:34;13.27;;;11.77;;
79178;SDS011;68608;49.904;16.436;2023-11-22T02:31:00;12.87;;;11.20;;
79178;SDS011;68608;49.904;16.436;2023-11-22T02:33:26;11.60;;;10.40;;
79178;SDS011;68608;49.904;16.436;2023-11-22T02:35:52;12.00;;;10.70;;
79178;SDS011;68608;49.904;16.436;2023-11-22T02:38:19;13.63;;;11.70;;
79178;SDS011;68608;49.904;16.436;2023-11-22T02:40:45;13.27;;;11.10;;
79178;SDS011;68608;49.904;16.436;2023-11-22T02:43:12;14.50;;;12.07;;
79178;SDS011;68608;49.904;16.436;2023-11-22T02:45:38;13.33;;;11.87;;
79178;SDS011;68608;49.904;16.436;2023-11-22T02:48:04;12.77;;;11.40;;
79178;SDS011;68608;49.904;16.436;2023-11-22T02:50:34;14.40;;;12.80;;
79178;SDS011;68608;49.904;16.436;2023-11-22T02:53:02;15.03;;;13.33;;
79178;SDS011;68608;49.904;16.436;2023-11-22T02:55:28;14.70;;;12.57;;
79178;SDS011;68608;49.904;16.436;2023-11-22T02:57:54;14.70;;;13.03;;
79178;SDS011;68608;49.904;16.436;2023-11-22T03:00:20;14.83;;;12.67;;
79178;SDS011;68608;49.904;16.436;2023-11-22T03:02:47;16.43;;;14.27;;
79178;SDS011;68608;49.904;16.436;2023-11-22T03:05:18;13.77;;;12.37;;
79178;SDS011;68608;49.904;16.436;2023-11-22T03:07:44;15.47;;;13.20;;
79178;SDS011;68608;49.904;16.436;2023-11-22T03:10:16;14.63;;;13.03;;
79178;SDS011;68608;49.904;16.436;2023-11-22T03:12:43;13.93;;;12.33;;
79178;SDS011;68608;49.904;16.436;2023-11-22T03:15:09;13.57;;;11.43;;
79178;SDS011;68608;49.904;16.436;2023-11-22T03:17:36;14.87;;;13.30;;
79178;SDS011;68608;49.904;16.436;2023-11-22T03:20:04;14.13;;;12.40;;
79178;SDS011;68608;49.904;16.436;2023-11-22T03:22:34;16.67;;;12.17;;
79178;SDS011;68608;49.904;16.436;2023-11-22T03:25:03;14.53;;;12.37;;
79178;SDS011;68608;49.904;16.436;2023-11-22T03:27:29;14.30;;;12.80;;
79178;SDS011;68608;49.904;16.436;2023-11-22T03:29:55;16.73;;;14.60;;
79178;SDS011;68608;49.904;16.436;2023-11-22T03:32:21;15.70;;;12.57;;
79178;SDS011;68608;49.904;16.436;2023-11-22T03:34:47;15.30;;;13.70;;
79178;SDS011;68608;49.904;16.436;2023-11-22T03:37:13;13.20;;;11.90;;
79178;SDS011;68608;49.904;16.436;2023-11-22T03:39:39;14.57;;;13.07;;
79178;SDS011;68608;49.904;16.436;2023-11-22T03:42:13;14.23;;;12.80;;
79178;SDS011;68608;49.904;16.436;2023-11-22T03:44:39;18.40;;;14.57;;
79178;SDS011;68608;49.904;16.436;2023-11-22T03:47:05;18.73;;;15.20;;
79178;SDS011;68608;49.904;16.436;2023-11-22T03:49:31;15.90;;;13.60;;
79178;SDS011;68608;49.904;16.436;2023-11-22T03:51:57;15.97;;;13.60;;
79178;SDS011;68608;49.904;16.436;2023-11-22T03:54:23;14.50;;;12.90;;
79178;SDS011;68608;49.904;16.436;2023-11-22T03:56:49;13.70;;;12.27;;
79178;SDS011;68608;49.904;16.436;2023-11-22T03:59:17;14.03;;;12.53;;
79178;SDS011;68608;49.904;16.436;2023-11-22T04:01:43;15.00;;;13.40;;
79178;SDS011;68608;49.904;16.436;2023-11-22T04:04:09;16.13;;;14.33;;
79178;SDS011;68608;49.904;16.436;2023-11-22T04:06:35;15.53;;;12.87;;
79178;SDS011;68608;49.904;16.436;2023-11-22T04:09:02;16.13;;;14.10;;
79178;SDS011;68608;49.904;16.436;2023-11-22T04:11:28;14.40;;;12.77;;
79178;SDS011;68608;49.904;16.436;2023-11-22T04:13:54;16.27;;;14.37;;
79178;SDS011;68608;49.904;16.436;2023-11-22T04:16:20;14.97;;;13.40;;
79178;SDS011;68608;49.904;16.436;2023-11-22T04:18:47;14.77;;;13.27;;
79178;SDS011;68608;49.904;16.436;2023-11-22T04:21:13;15.93;;;13.67;;
79178;SDS011;68608;49.904;16.436;2023-11-22T04:23:39;17.27;;;14.07;;
79178;SDS011;68608;49.904;16.436;2023-11-22T04:26:05;17.47;;;13.87;;
79178;SDS011;68608;49.904;16.436;2023-11-22T04:28:32;16.77;;;14.23;;
79178;SDS011;68608;49.904;16.436;2023-11-22T04:30:59;18.00;;;14.57;;
79178;SDS011;68608;49.904;16.436;2023-11-22T04:33:25;17.37;;;14.43;;
79178;SDS011;68608;49.904;16.436;2023-11-22T04:35:53;16.40;;;14.53;;
79178;SDS011;68608;49.904;16.436;2023-11-22T04:38:19;15.57;;;13.90;;
79178;SDS011;68608;49.904;16.436;2023-11-22T04:40:45;16.43;;;14.33;;
79178;SDS011;68608;49.904;16.436;2023-11-22T04:43:11;18.13;;;14.37;;
79178;SDS011;68608;49.904;16.436;2023-11-22T04:45:37;17.70;;;14.60;;
79178;SDS011;68608;49.904;16.436;2023-11-22T04:48:04;16.07;;;13.43;;
79178;SDS011;68608;49.904;16.436;2023-11-22T04:50:31;18.47;;;15.07;;
79178;SDS011;68608;49.904;16.436;2023-11-22T04:52:57;17.90;;;15.13;;
79178;SDS011;68608;49.904;16.436;2023-11-22T04:55:24;17.37;;;14.93;;
79178;SDS011;68608;49.904;16.436;2023-11-22T04:57:50;18.77;;;16.37;;
79178;SDS011;68608;49.904;16.436;2023-11-22T05:00:17;20.60;;;16.27;;
79178;SDS011;68608;49.904;16.436;2023-11-22T05:02:44;20.20;;;16.07;;
79178;SDS011;68608;49.904;16.436;2023-11-22T05:05:10;18.27;;;15.80;;
79178;SDS011;68608;49.904;16.436;2023-11-22T05:07:36;18.53;;;16.53;;
79178;SDS011;68608;49.904;16.436;2023-11-22T05:10:03;21.00;;;16.97;;
79178;SDS011;68608;49.904;16.436;2023-11-22T05:12:29;19.93;;;16.03;;
79178;SDS011;68608;49.904;16.436;2023-11-22T05:14:55;20.07;;;17.10;;
79178;SDS011;68608;49.904;16.436;2023-11-22T05:17:21;18.73;;;16.73;;
79178;SDS011;68608;49.904;16.436;2023-11-22T05:19:48;18.93;;;16.93;;
79178;SDS011;68608;49.904;16.436;2023-11-22T05:22:15;21.10;;;17.57;;
79178;SDS011;68608;49.904;16.436;2023-11-22T05:24:41;20.87;;;16.83;;
79178;SDS011;68608;49.904;16.436;2023-11-22T05:27:07;19.33;;;16.57;;
79178;SDS011;68608;49.904;16.436;2023-11-22T05:29:34;21.17;;;16.40;;
79178;SDS011;68608;49.904;16.436;2023-11-22T05:32:00;22.27;;;17.77;;
79178;SDS011;68608;49.904;16.436;2023-11-22T05:34:26;20.67;;;17.43;;
79178;SDS011;68608;49.904;16.436;2023-11-22T05:36:52;20.70;;;17.03;;
79178;SDS011;68608;49.904;16.436;2023-11-22T05:39:21;22.00;;;18.97;;
79178;SDS011;68608;49.904;16.436;2023-11-22T05:41:50;24.33;;;18.67;;
79178;SDS011;68608;49.904;16.436;2023-11-22T05:44:17;24.10;;;18.37;;
79178;SDS011;68608;49.904;16.436;2023-11-22T05:46:43;22.00;;;17.33;;
79178;SDS011;68608;49.904;16.436;2023-11-22T05:49:09;21.77;;;17.23;;
79178;SDS011;68608;49.904;16.436;2023-11-22T05:51:38;22.50;;;17.80;;
79178;SDS011;68608;49.904;16.436;2023-11-22T05:54:04;22.93;;;18.43;;
79178;SDS011;68608;49.904;16.436;2023-11-22T05:56:30;21.77;;;16.67;;
79178;SDS011;68608;49.904;16.436;2023-11-22T05:58:56;23.07;;;17.83;;
79178;SDS011;68608;49.904;16.436;2023-11-22T06:01:24;23.90;;;17.53;;
79178;SDS011;68608;49.904;16.436;2023-11-22T06:03:51;21.20;;;16.47;;
79178;SDS011;68608;49.904;16.436;2023-11-22T06:06:17;20.73;;;15.97;;
79178;SDS011;68608;49.904;16.436;2023-11-22T06:08:46;21.87;;;17.83;;
79178;SDS011;68608;49.904;16.436;2023-11-22T06:11:12;20.80;;;16.97;;
79178;SDS011;68608;49.904;16.436;2023-11-22T06:13:40;22.10;;;17.00;;
79178;SDS011;68608;49.904;16.436;2023-11-22T06:16:06;19.13;;;15.77;;
79178;SDS011;68608;49.904;16.436;2023-11-22T06:18:32;20.60;;;15.37;;
79178;SDS011;68608;49.904;16.436;2023-11-22T06:20:59;19.17;;;15.83;;
79178;SDS011;68608;49.904;16.436;2023-11-22T06:23:25;18.50;;;16.00;;
79178;SDS011;68608;49.904;16.436;2023-11-22T06:25:51;22.10;;;17.13;;
79178;SDS011;68608;49.904;16.436;2023-11-22T06:28:17;19.77;;;16.50;;
79178;SDS011;68608;49.904;16.436;2023-11-22T06:30:43;18.03;;;15.07;;
79178;SDS011;68608;49.904;16.436;2023-11-22T06:33:09;19.20;;;15.80;;
79178;SDS011;68608;49.904;16.436;2023-11-22T06:35:35;24.00;;;15.97;;
79178;SDS011;68608;49.904;16.436;2023-11-22T06:38:02;20.67;;;16.23;;
79178;SDS011;68608;49.904;16.436;2023-11-22T06:40:28;19.23;;;15.13;;
79178;SDS011;68608;49.904;16.436;2023-11-22T06:42:55;23.37;;;15.93;;
79178;SDS011;68608;49.904;16.436;2023-11-22T06:45:21;20.87;;;15.93;;
79178;SDS011;68608;49.904;16.436;2023-11-22T06:47:47;20.83;;;16.43;;
79178;SDS011;68608;49.904;16.436;2023-11-22T06:50:15;19.93;;;14.73;;
79178;SDS011;68608;49.904;16.436;2023-11-22T06:52:42;19.43;;;15.53;;
79178;SDS011;68608;49.904;16.436;2023-11-22T06:55:08;18.10;;;15.43;;
79178;SDS011;68608;49.904;16.436;2023-11-22T06:57:35;20.87;;;16.13;;
79178;SDS011;68608;49.904;16.436;2023-11-22T07:00:01;18.23;;;14.47;;
79178;SDS011;68608;49.904;16.436;2023-11-22T07:02:30;19.17;;;16.77;;
79178;SDS011;68608;49.904;16.436;2023-11-22T07:04:56;23.17;;;16.90;;
79178;SDS011;68608;49.904;16.436;2023-11-22T07:07:24;17.43;;;14.60;;
79178;SDS011;68608;49.904;16.436;2023-11-22T07:09:50;18.20;;;15.83;;
79178;SDS011;68608;49.904;16.436;2023-11-22T07:12:16;20.13;;;16.37;;
79178;SDS011;68608;49.904;16.436;2023-11-22T07:14:44;19.30;;;15.50;;
79178;SDS011;68608;49.904;16.436;2023-11-22T07:17:10;18.13;;;15.17;;
79178;SDS011;68608;49.904;16.436;2023-11-22T07:19:36;20.03;;;15.30;;
79178;SDS011;68608;49.904;16.436;2023-11-22T07:22:05;19.73;;;15.47;;
79178;SDS011;68608;49.904;16.436;2023-11-22T07:24:41;18.27;;;14.60;;
79178;SDS011;68608;49.904;16.436;2023-11-22T07:27:09;15.47;;;12.90;;
79178;SDS011;68608;49.904;16.436;2023-11-22T07:29:37;17.23;;;13.23;;
79178;SDS011;68608;49.904;16.436;2023-11-22T07:32:03;19.70;;;15.80;;
79178;SDS011;68608;49.904;16.436;2023-11-22T07:34:29;15.83;;;13.53;;
79178;SDS011;68608;49.904;16.436;2023-11-22T07:36:55;17.53;;;14.30;;
79178;SDS011;68608;49.904;16.436;2023-11-22T07:39:21;17.10;;;14.40;;
79178;SDS011;68608;49.904;16.436;2023-11-22T07:41:52;13.70;;;12.27;;
79178;SDS011;68608;49.904;16.436;2023-11-22T07:44:20;14.10;;;12.17;;
79178;SDS011;68608;49.904;16.436;2023-11-22T07:46:49;17.83;;;13.33;;
79178;SDS011;68608;49.904;16.436;2023-11-22T07:49:24;15.13;;;12.30;;
79178;SDS011;68608;49.904;16.436;2023-11-22T07:51:50;16.30;;;12.70;;
79178;SDS011;68608;49.904;16.436;2023-11-22T07:54:18;17.33;;;13.57;;
79178;SDS011;68608;49.904;16.436;2023-11-22T07:56:47;16.27;;;13.50;;
79178;SDS011;68608;49.904;16.436;2023-11-22T07:59:17;14.57;;;13.07;;
79178;SDS011;68608;49.904;16.436;2023-11-22T08:01:43;17.27;;;13.30;;
79178;SDS011;68608;49.904;16.436;2023-11-22T08:04:10;19.47;;;14.87;;
79178;SDS011;68608;49.904;16.436;2023-11-22T08:06:36;16.90;;;14.17;;
79178;SDS011;68608;49.904;16.436;2023-11-22T08:09:03;19.60;;;14.50;;
79178;SDS011;68608;49.904;16.436;2023-11-22T08:11:34;17.50;;;14.63;;
79178;SDS011;68608;49.904;16.436;2023-11-22T08:14:01;23.07;;;17.17;;
79178;SDS011;68608;49.904;16.436;2023-11-22T08:16:32;20.90;;;16.87;;
79178;SDS011;68608;49.904;16.436;2023-11-22T08:19:03;26.00;;;18.50;;
79178;SDS011;68608;49.904;16.436;2023-11-22T08:21:30;21.60;;;17.70;;
79178;SDS011;68608;49.904;16.436;2023-11-22T08:23:57;23.57;;;18.77;;
79178;SDS011;68608;49.904;16.436;2023-11-22T08:26:24;24.90;;;19.67;;
79178;SDS011;68608;49.904;16.436;2023-11-22T08:28:53;26.47;;;19.50;;
79178;SDS011;68608;49.904;16.436;2023-11-22T08:31:20;24.33;;;18.20;;
79178;SDS011;68608;49.904;16.436;2023-11-22T08:33:46;24.87;;;20.07;;
79178;SDS011;68608;49.904;16.436;2023-11-22T08:36:12;27.97;;;21.57;;
79178;SDS011;68608;49.904;16.436;2023-11-22T08:38:38;22.20;;;18.33;;
79178;SDS011;68608;49.904;16.436;2023-11-22T08:41:06;27.30;;;19.27;;
79178;SDS011;68608;49.904;16.436;2023-11-22T08:43:33;25.50;;;19.93;;
79178;SDS011;68608;49.904;16.436;2023-11-22T08:46:00;25.80;;;20.47;;
79178;SDS011;68608;49.904;16.436;2023-11-22T08:48:29;26.87;;;19.50;;
79178;SDS011;68608;49.904;16.436;2023-11-22T08:50:56;27.03;;;20.73;;
79178;SDS011;68608;49.904;16.436;2023-11-22T08:53:22;27.80;;;21.50;;
79178;SDS011;68608;49.904;16.436;2023-11-22T08:55:48;27.33;;;20.50;;
79178;SDS011;68608;49.904;16.436;2023-11-22T08:58:14;31.23;;;21.13;;
79178;SDS011;68608;49.904;16.436;2023-11-22T09:00:40;27.83;;;21.23;;
79178;SDS011;68608;49.904;16.436;2023-11-22T09:03:07;27.70;;;21.03;;
79178;SDS011;68608;49.904;16.436;2023-11-22T09:05:35;29.20;;;19.77;;
79178;SDS011;68608;49.904;16.436;2023-11-22T09:08:02;31.07;;;21.63;;
79178;SDS011;68608;49.904;16.436;2023-11-22T09:10:29;30.17;;;22.30;;
79178;SDS011;68608;49.904;16.436;2023-11-22T09:12:55;28.83;;;21.47;;
79178;SDS011;68608;49.904;16.436;2023-11-22T09:15:27;29.47;;;21.37;;
79178;SDS011;68608;49.904;16.436;2023-11-22T09:17:54;26.03;;;20.00;;
79178;SDS011;68608;49.904;16.436;2023-11-22T09:20:21;27.40;;;18.40;;
79178;SDS011;68608;49.904;16.436;2023-11-22T09:22:49;26.53;;;19.93;;
79178;SDS011;68608;49.904;16.436;2023-11-22T09:27:44;25.57;;;18.97;;
79178;SDS011;68608;49.904;16.436;2023-11-22T09:30:14;28.17;;;21.07;;
79178;SDS011;68608;49.904;16.436;2023-11-22T09:32:57;23.63;;;18.73;;
79178;SDS011;68608;49.904;16.436;2023-11-22T09:35:23;27.33;;;19.50;;
79178;SDS011;68608;49.904;16.436;2023-11-22T09:37:50;26.60;;;19.57;;
79178;SDS011;68608;49.904;16.436;2023-11-22T09:40:16;26.17;;;19.57;;
79178;SDS011;68608;49.904;16.436;2023-11-22T09:42:46;25.53;;;19.80;;
79178;SDS011;68608;49.904;16.436;2023-11-22T09:45:16;23.80;;;18.63;;
79178;SDS011;68608;49.904;16.436;2023-11-22T09:47:43;25.60;;;18.77;;
79178;SDS011;68608;49.904;16.436;2023-11-22T09:50:10;23.67;;;18.93;;
79178;SDS011;68608;49.904;16.436;2023-11-22T09:52:40;24.00;;;18.30;;
79178;SDS011;68608;49.904;16.436;2023-11-22T09:55:07;27.53;;;19.63;;
79178;SDS011;68608;49.904;16.436;2023-11-22T09:57:33;25.57;;;18.90;;
79178;SDS011;68608;49.904;16.436;2023-11-22T10:00:03;30.60;;;21.47;;
79178;SDS011;68608;49.904;16.436;2023-11-22T10:02:31;28.60;;;19.90;;
79178;SDS011;68608;49.904;16.436;2023-11-22T10:05:00;26.30;;;19.37;;
79178;SDS011;68608;49.904;16.436;2023-11-22T10:07:26;28.37;;;18.97;;
79178;SDS011;68608;49.904;16.436;2023-11-22T10:09:52;27.20;;;20.83;;
79178;SDS011;68608;49.904;16.436;2023-11-22T10:12:19;37.13;;;23.27;;
79178;SDS011;68608;49.904;16.436;2023-11-22T10:14:48;31.20;;;23.10;;
79178;SDS011;68608;49.904;16.436;2023-11-22T10:17:14;25.37;;;19.33;;
79178;SDS011;68608;49.904;16.436;2023-11-22T10:19:44;27.83;;;18.93;;
79178;SDS011;68608;49.904;16.436;2023-11-22T10:22:10;22.40;;;18.27;;
79178;SDS011;68608;49.904;16.436;2023-11-22T10:24:42;26.93;;;20.43;;
79178;SDS011;68608;49.904;16.436;2023-11-22T10:27:11;22.40;;;17.87;;
79178;SDS011;68608;49.904;16.436;2023-11-22T10:29:37;28.40;;;19.47;;
79178;SDS011;68608;49.904;16.436;2023-11-22T10:32:04;26.10;;;18.53;;
79178;SDS011;68608;49.904;16.436;2023-11-22T10:34:32;23.83;;;19.40;;
79178;SDS011;68608;49.904;16.436;2023-11-22T10:36:58;22.97;;;18.83;;
79178;SDS011;68608;49.904;16.436;2023-11-22T10:39:24;24.13;;;18.43;;
79178;SDS011;68608;49.904;16.436;2023-11-22T10:41:51;23.47;;;17.57;;
79178;SDS011;68608;49.904;16.436;2023-11-22T10:44:19;25.30;;;20.03;;
79178;SDS011;68608;49.904;16.436;2023-11-22T10:46:49;24.63;;;18.50;;
79178;SDS011;68608;49.904;16.436;2023-11-22T10:49:16;24.33;;;17.63;;
79178;SDS011;68608;49.904;16.436;2023-11-22T10:51:42;23.80;;;18.33;;
79178;SDS011;68608;49.904;16.436;2023-11-22T10:54:10;21.73;;;16.47;;
79178;SDS011;68608;49.904;16.436;2023-11-22T10:56:38;24.43;;;18.77;;
79178;SDS011;68608;49.904;16.436;2023-11-22T10:59:09;25.80;;;19.90;;
79178;SDS011;68608;49.904;16.436;2023-11-22T11:01:37;22.47;;;16.40;;
79178;SDS011;68608;49.904;16.436;2023-11-22T11:04:23;21.17;;;16.70;;
79178;SDS011;68608;49.904;16.436;2023-11-22T11:06:51;24.50;;;16.03;;
79178;SDS011;68608;49.904;16.436;2023-11-22T11:09:17;18.83;;;14.73;;
79178;SDS011;68608;49.904;16.436;2023-11-22T11:11:46;20.80;;;15.57;;
79178;SDS011;68608;49.904;16.436;2023-11-22T11:14:12;19.27;;;14.67;;
79178;SDS011;68608;49.904;16.436;2023-11-22T11:16:40;19.63;;;15.07;;
79178;SDS011;68608;49.904;16.436;2023-11-22T11:19:11;18.83;;;15.90;;
79178;SDS011;68608;49.904;16.436;2023-11-22T11:21:38;16.73;;;13.87;;
79178;SDS011;68608;49.904;16.436;2023-11-22T11:24:04;16.83;;;14.00;;
79178;SDS011;68608;49.904;16.436;2023-11-22T11:26:34;19.60;;;14.90;;
79178;SDS011;68608;49.904;16.436;2023-11-22T11:29:33;18.10;;;14.70;;
79178;SDS011;68608;49.904;16.436;2023-11-22T11:32:00;16.00;;;13.43;;
79178;SDS011;68608;49.904;16.436;2023-11-22T11:34:48;17.60;;;13.83;;
79178;SDS011;68608;49.904;16.436;2023-11-22T11:37:20;15.30;;;12.23;;
79178;SDS011;68608;49.904;16.436;2023-11-22T11:39:46;18.53;;;13.27;;
79178;SDS011;68608;49.904;16.436;2023-11-22T11:42:15;15.80;;;12.93;;
79178;SDS011;68608;49.904;16.436;2023-11-22T11:44:51;15.47;;;13.00;;
79178;SDS011;68608;49.904;16.436;2023-11-22T11:47:17;15.10;;;12.47;;
79178;SDS011;68608;49.904;16.436;2023-11-22T11:49:44;13.77;;;11.87;;
79178;SDS011;68608;49.904;16.436;2023-11-22T11:52:10;15.93;;;12.60;;
79178;SDS011;68608;49.904;16.436;2023-11-22T11:54:36;17.70;;;14.40;;
79178;SDS011;68608;49.904;16.436;2023-11-22T11:57:04;12.63;;;11.03;;
79178;SDS011;68608;49.904;16.436;2023-11-22T11:59:31;12.30;;;10.83;;
79178;SDS011;68608;49.904;16.436;2023-11-22T12:01:59;12.00;;;10.80;;
79178;SDS011;68608;49.904;16.436;2023-11-22T12:04:25;13.10;;;11.07;;
79178;SDS011;68608;49.904;16.436;2023-11-22T12:06:51;15.23;;;12.67;;
79178;SDS011;68608;49.904;16.436;2023-11-22T12:09:24;12.97;;;10.93;;
79178;SDS011;68608;49.904;16.436;2023-11-22T12:11:50;13.87;;;11.80;;
79178;SDS011;68608;49.904;16.436;2023-11-22T12:14:18;14.23;;;12.67;;
79178;SDS011;68608;49.904;16.436;2023-11-22T12:16:44;13.60;;;11.63;;
79178;SDS011;68608;49.904;16.436;2023-11-22T12:19:20;13.47;;;11.17;;
79178;SDS011;68608;49.904;16.436;2023-11-22T12:21:47;14.80;;;11.77;;
79178;SDS011;68608;49.904;16.436;2023-11-22T12:24:14;15.70;;;12.23;;
79178;SDS011;68608;49.904;16.436;2023-11-22T12:26:44;15.13;;;11.90;;
79178;SDS011;68608;49.904;16.436;2023-11-22T12:29:13;18.17;;;15.20;;
79178;SDS011;68608;49.904;16.436;2023-11-22T12:31:46;16.53;;;13.57;;
79178;SDS011;68608;49.904;16.436;2023-11-22T12:34:14;16.80;;;13.73;;
79178;SDS011;68608;49.904;16.436;2023-11-22T12:36:41;18.67;;;13.27;;
79178;SDS011;68608;49.904;16.436;2023-11-22T12:39:10;16.40;;;12.97;;
79178;SDS011;68608;49.904;16.436;2023-11-22T12:41:42;15.90;;;12.57;;
79178;SDS011;68608;49.904;16.436;2023-11-22T12:44:10;14.87;;;12.57;;
79178;SDS011;68608;49.904;16.436;2023-11-22T12:46:46;18.30;;;13.83;;
79178;SDS011;68608;49.904;16.436;2023-11-22T12:49:20;20.60;;;15.03;;
79178;SDS011;68608;49.904;16.436;2023-11-22T12:51:50;20.60;;;13.93;;
79178;SDS011;68608;49.904;16.436;2023-11-22T12:54:17;19.83;;;15.77;;
79178;SDS011;68608;49.904;16.436;2023-11-22T12:56:46;17.57;;;14.23;;
79178;SDS011;68608;49.904;16.436;2023-11-22T12:59:14;18.10;;;14.20;;
79178;SDS011;68608;49.904;16.436;2023-11-22T13:01:40;16.33;;;14.23;;
79178;SDS011;68608;49.904;16.436;2023-11-22T13:04:07;18.17;;;14.30;;
79178;SDS011;68608;49.904;16.436;2023-11-22T13:06:33;15.53;;;13.57;;
79178;SDS011;68608;49.904;16.436;2023-11-22T13:08:59;18.27;;;13.43;;
79178;SDS011;68608;49.904;16.436;2023-11-22T13:11:25;15.50;;;13.83;;
79178;SDS011;68608;49.904;16.436;2023-11-22T13:13:51;19.20;;;14.63;;
79178;SDS011;68608;49.904;16.436;2023-11-22T13:16:17;19.33;;;14.03;;
79178;SDS011;68608;49.904;16.436;2023-11-22T13:18:44;18.70;;;14.73;;
79178;SDS011;68608;49.904;16.436;2023-11-22T13:21:10;18.27;;;13.90;;
79178;SDS011;68608;49.904;16.436;2023-11-22T13:23:36;24.07;;;16.93;;
79178;SDS011;68608;49.904;16.436;2023-11-22T13:26:02;22.33;;;17.33;;
79178;SDS011;68608;49.904;16.436;2023-11-22T13:28:30;28.77;;;21.07;;
79178;SDS011;68608;49.904;16.436;2023-11-22T13:30:56;23.87;;;16.83;;
79178;SDS011;68608;49.904;16.436;2023-11-22T13:33:23;22.53;;;16.03;;
79178;SDS011;68608;49.904;16.436;2023-11-22T13:35:49;21.20;;;14.93;;
79178;SDS011;68608;49.904;16.436;2023-11-22T13:38:16;17.53;;;14.80;;
79178;SDS011;68608;49.904;16.436;2023-11-22T13:40:42;22.60;;;15.50;;
79178;SDS011;68608;49.904;16.436;2023-11-22T13:43:10;24.47;;;16.00;;
79178;SDS011;68608;49.904;16.436;2023-11-22T13:45:38;20.87;;;15.73;;
79178;SDS011;68608;49.904;16.436;2023-11-22T13:48:06;20.23;;;15.83;;
79178;SDS011;68608;49.904;16.436;2023-11-22T13:50:34;20.87;;;16.27;;
79178;SDS011;68608;49.904;16.436;2023-11-22T13:53:01;21.17;;;16.47;;
79178;SDS011;68608;49.904;16.436;2023-11-22T13:55:28;18.77;;;15.23;;
79178;SDS011;68608;49.904;16.436;2023-11-22T13:57:56;22.40;;;17.53;;
79178;SDS011;68608;49.904;16.436;2023-11-22T14:00:24;21.03;;;17.07;;
79178;SDS011;68608;49.904;16.436;2023-11-22T14:02:57;20.27;;;16.70;;
79178;SDS011;68608;49.904;16.436;2023-11-22T14:05:29;19.60;;;16.17;;
79178;SDS011;68608;49.904;16.436;2023-11-22T14:07:56;25.83;;;17.83;;
79178;SDS011;68608;49.904;16.436;2023-11-22T14:10:22;25.03;;;16.83;;
79178;SDS011;68608;49.904;16.436;2023-11-22T14:12:49;20.23;;;16.40;;
79178;SDS011;68608;49.904;16.436;2023-11-22T14:15:16;23.53;;;17.50;;